Agate, Nebraska
Current Conditions -  °F | °C
As of 12:53 PM on Thursday 30 Oct 2014 (Local Time) from KTOR Reporting Station
Clear Clear  
Wind Chill: 16°   Ceiling: Unl
Heat Index: 16°   Visibility: 10mi
Dew Point: -2°   Wind: 8mph
Humidity: 29%   Direction: 290°WNW
Pressure: 30.32"   Gusts: NA
Location:  42.42°N, 103.79°W
Report Text: KTOR 301853Z AUTO 29007KT 10SM CLR 16/M02 A3032 RMK AO2 SLP252 T01611022
Loading
Personal Weather Stations






























Interactive Weather Map
Tropical Storm Tracking
New forecast layout! Learn more

10-Day Weather Forecast

Advertisements
Track Severe Weather on mobile